Verdigris, Oklahoma
Current Conditions -  °F | °C
As of 12:55 AM on Monday 24 Nov 2014 (Local Time) from KGCM Reporting Station
Clear Clear  
Wind Chill: 35°   Ceiling: Unl
Heat Index: 41°   Visibility: 10mi
Dew Point: 37°   Wind: 9mph
Humidity: 87%   Direction: 290°WNW
Pressure: 29.74"   Gusts: 16mph
Location:  36.3346°N, 95.5666°W
Report Text: KGCM 240655Z AUTO 29008G14KT 10SM CLR 05/03 A2974 RMK AO2
Loading
Personal Weather Stations






























Interactive Weather Map New forecast layout! Learn more

10-Day Weather Forecast

Advertisements
Track Severe Weather on mobile